sensor_id;sensor_type;location;lat;lon;timestamp;temperature;humidity
45319;DHT22;31057;48.498;32.260;2022-09-09T00:04:35;11.20;99.90
45319;DHT22;31057;48.498;32.260;2022-09-09T00:07:41;11.30;99.90
45319;DHT22;31057;48.498;32.260;2022-09-09T00:10:45;11.20;99.90
45319;DHT22;31057;48.498;32.260;2022-09-09T00:13:57;11.20;99.90
45319;DHT22;31057;48.498;32.260;2022-09-09T00:17:23;11.40;99.90
45319;DHT22;31057;48.498;32.260;2022-09-09T00:23:38;11.20;99.90
45319;DHT22;31057;48.498;32.260;2022-09-09T00:26:47;11.00;99.90
45319;DHT22;31057;48.498;32.260;2022-09-09T00:29:54;10.80;99.90
45319;DHT22;31057;48.498;32.260;2022-09-09T00:33:12;10.60;99.90
45319;DHT22;31057;48.498;32.260;2022-09-09T00:36:21;10.50;99.90
45319;DHT22;31057;48.498;32.260;2022-09-09T00:39:45;10.50;99.90
45319;DHT22;31057;48.498;32.260;2022-09-09T00:43:06;10.40;99.90
45319;DHT22;31057;48.498;32.260;2022-09-09T00:53:39;10.70;99.90
45319;DHT22;31057;48.498;32.260;2022-09-09T00:56:14;10.60;99.90
45319;DHT22;31057;48.498;32.260;2022-09-09T01:02:41;10.70;99.90
45319;DHT22;31057;48.498;32.260;2022-09-09T01:09:19;10.80;99.90
45319;DHT22;31057;48.498;32.260;2022-09-09T01:12:27;10.60;99.90
45319;DHT22;31057;48.498;32.260;2022-09-09T01:15:32;10.60;99.90
45319;DHT22;31057;48.498;32.260;2022-09-09T01:18:40;10.60;99.90
45319;DHT22;31057;48.498;32.260;2022-09-09T01:21:58;10.60;99.90
45319;DHT22;31057;48.498;32.260;2022-09-09T01:25:26;10.30;99.90
45319;DHT22;31057;48.498;32.260;2022-09-09T01:28:29;10.50;99.90
45319;DHT22;31057;48.498;32.260;2022-09-09T01:34:53;10.40;99.90
45319;DHT22;31057;48.498;32.260;2022-09-09T01:37:55;10.30;99.90
45319;DHT22;31057;48.498;32.260;2022-09-09T01:40:57;10.20;99.90
45319;DHT22;31057;48.498;32.260;2022-09-09T01:44:00;10.20;99.90
45319;DHT22;31057;48.498;32.260;2022-09-09T01:47:03;10.10;99.90
45319;DHT22;31057;48.498;32.260;2022-09-09T01:50:06;10.20;99.90
45319;DHT22;31057;48.498;32.260;2022-09-09T01:53:10;10.20;99.90
45319;DHT22;31057;48.498;32.260;2022-09-09T02:09:30;9.50;99.90
45319;DHT22;31057;48.498;32.260;2022-09-09T02:12:32;9.50;99.90
45319;DHT22;31057;48.498;32.260;2022-09-09T02:15:45;9.70;99.90
45319;DHT22;31057;48.498;32.260;2022-09-09T02:19:00;9.70;99.90
45319;DHT22;31057;48.498;32.260;2022-09-09T02:22:03;10.00;99.90
45319;DHT22;31057;48.498;32.260;2022-09-09T02:25:07;10.20;99.90
45319;DHT22;31057;48.498;32.260;2022-09-09T02:28:10;10.20;99.90
45319;DHT22;31057;48.498;32.260;2022-09-09T02:31:18;10.10;99.90
45319;DHT22;31057;48.498;32.260;2022-09-09T02:34:22;10.00;99.90
45319;DHT22;31057;48.498;32.260;2022-09-09T02:37:29;9.90;99.90
45319;DHT22;31057;48.498;32.260;2022-09-09T02:40:33;9.80;99.90
45319;DHT22;31057;48.498;32.260;2022-09-09T02:43:35;10.00;99.90
45319;DHT22;31057;48.498;32.260;2022-09-09T02:50:12;9.90;99.90
45319;DHT22;31057;48.498;32.260;2022-09-09T02:53:18;9.90;99.90
45319;DHT22;31057;48.498;32.260;2022-09-09T02:56:23;9.90;99.90
45319;DHT22;31057;48.498;32.260;2022-09-09T02:59:29;9.80;99.90
45319;DHT22;31057;48.498;32.260;2022-09-09T03:02:31;10.00;99.90
45319;DHT22;31057;48.498;32.260;2022-09-09T03:05:33;10.10;99.90
45319;DHT22;31057;48.498;32.260;2022-09-09T03:08:35;10.00;99.90
45319;DHT22;31057;48.498;32.260;2022-09-09T03:11:38;10.00;99.90
45319;DHT22;31057;48.498;32.260;2022-09-09T03:14:40;9.90;99.90
45319;DHT22;31057;48.498;32.260;2022-09-09T03:17:42;9.80;99.90
45319;DHT22;31057;48.498;32.260;2022-09-09T03:20:46;9.80;99.90
45319;DHT22;31057;48.498;32.260;2022-09-09T03:23:50;9.90;99.90
45319;DHT22;31057;48.498;32.260;2022-09-09T03:26:52;10.00;99.90
45319;DHT22;31057;48.498;32.260;2022-09-09T03:29:54;10.10;99.90
45319;DHT22;31057;48.498;32.260;2022-09-09T03:32:56;10.00;99.90
45319;DHT22;31057;48.498;32.260;2022-09-09T03:35:58;10.00;99.90
45319;DHT22;31057;48.498;32.260;2022-09-09T03:39:00;10.00;99.90
45319;DHT22;31057;48.498;32.260;2022-09-09T03:42:04;10.00;99.90
45319;DHT22;31057;48.498;32.260;2022-09-09T03:45:09;10.10;99.90
45319;DHT22;31057;48.498;32.260;2022-09-09T03:48:12;10.10;99.90
45319;DHT22;31057;48.498;32.260;2022-09-09T03:51:14;10.00;99.90
45319;DHT22;31057;48.498;32.260;2022-09-09T03:54:17;10.00;99.90
45319;DHT22;31057;48.498;32.260;2022-09-09T03:57:19;10.00;99.90
45319;DHT22;31057;48.498;32.260;2022-09-09T04:00:21;10.00;99.90
45319;DHT22;31057;48.498;32.260;2022-09-09T04:03:24;10.00;99.90
45319;DHT22;31057;48.498;32.260;2022-09-09T04:06:29;10.00;99.90
45319;DHT22;31057;48.498;32.260;2022-09-09T04:09:31;10.10;99.90
45319;DHT22;31057;48.498;32.260;2022-09-09T04:12:33;10.10;99.90
45319;DHT22;31057;48.498;32.260;2022-09-09T04:15:36;10.20;99.90
45319;DHT22;31057;48.498;32.260;2022-09-09T04:18:38;10.30;99.90
45319;DHT22;31057;48.498;32.260;2022-09-09T04:21:41;10.40;99.90
45319;DHT22;31057;48.498;32.260;2022-09-09T04:24:43;10.40;99.90
45319;DHT22;31057;48.498;32.260;2022-09-09T04:27:57;10.40;99.90
45319;DHT22;31057;48.498;32.260;2022-09-09T04:31:07;10.50;99.90
45319;DHT22;31057;48.498;32.260;2022-09-09T04:34:09;10.50;99.90
45319;DHT22;31057;48.498;32.260;2022-09-09T04:37:11;10.70;99.90
45319;DHT22;31057;48.498;32.260;2022-09-09T04:40:13;10.80;99.90
45319;DHT22;31057;48.498;32.260;2022-09-09T04:43:15;10.80;99.90
45319;DHT22;31057;48.498;32.260;2022-09-09T04:46:17;10.80;99.90
45319;DHT22;31057;48.498;32.260;2022-09-09T04:49:19;11.00;99.90
45319;DHT22;31057;48.498;32.260;2022-09-09T04:52:21;11.20;99.90
45319;DHT22;31057;48.498;32.260;2022-09-09T04:55:23;11.30;99.90
45319;DHT22;31057;48.498;32.260;2022-09-09T04:58:25;11.40;99.90
45319;DHT22;31057;48.498;32.260;2022-09-09T05:01:28;11.50;99.90
45319;DHT22;31057;48.498;32.260;2022-09-09T05:04:29;11.60;99.90
45319;DHT22;31057;48.498;32.260;2022-09-09T05:07:31;11.70;99.90
45319;DHT22;31057;48.498;32.260;2022-09-09T05:10:35;11.80;99.90
45319;DHT22;31057;48.498;32.260;2022-09-09T05:13:38;11.80;99.90
45319;DHT22;31057;48.498;32.260;2022-09-09T05:16:42;12.00;99.90
45319;DHT22;31057;48.498;32.260;2022-09-09T05:19:46;12.10;99.90
45319;DHT22;31057;48.498;32.260;2022-09-09T05:22:47;12.30;99.90
45319;DHT22;31057;48.498;32.260;2022-09-09T05:25:58;12.40;99.90
45319;DHT22;31057;48.498;32.260;2022-09-09T05:29:00;12.40;99.90
45319;DHT22;31057;48.498;32.260;2022-09-09T05:32:03;12.30;99.90
45319;DHT22;31057;48.498;32.260;2022-09-09T05:35:05;12.40;99.90
45319;DHT22;31057;48.498;32.260;2022-09-09T05:38:07;12.70;99.90
45319;DHT22;31057;48.498;32.260;2022-09-09T05:41:10;12.90;99.90
45319;DHT22;31057;48.498;32.260;2022-09-09T05:44:13;13.00;99.90
45319;DHT22;31057;48.498;32.260;2022-09-09T05:47:15;12.90;99.90
45319;DHT22;31057;48.498;32.260;2022-09-09T05:50:16;13.20;99.90
45319;DHT22;31057;48.498;32.260;2022-09-09T05:53:18;13.50;99.90
45319;DHT22;31057;48.498;32.260;2022-09-09T05:56:25;13.60;99.90
45319;DHT22;31057;48.498;32.260;2022-09-09T05:59:27;13.40;99.90
45319;DHT22;31057;48.498;32.260;2022-09-09T06:02:29;13.40;99.90
45319;DHT22;31057;48.498;32.260;2022-09-09T06:05:32;13.70;99.90
45319;DHT22;31057;48.498;32.260;2022-09-09T06:08:35;14.20;99.90
45319;DHT22;31057;48.498;32.260;2022-09-09T06:11:41;14.50;99.90
45319;DHT22;31057;48.498;32.260;2022-09-09T06:14:43;14.80;99.90
45319;DHT22;31057;48.498;32.260;2022-09-09T06:17:47;15.10;99.90
45319;DHT22;31057;48.498;32.260;2022-09-09T06:21:00;15.30;99.90
45319;DHT22;31057;48.498;32.260;2022-09-09T06:24:03;15.20;99.90
45319;DHT22;31057;48.498;32.260;2022-09-09T06:27:06;15.20;99.90
45319;DHT22;31057;48.498;32.260;2022-09-09T06:30:08;15.30;99.90
45319;DHT22;31057;48.498;32.260;2022-09-09T06:33:11;15.40;99.90
45319;DHT22;31057;48.498;32.260;2022-09-09T06:36:15;15.60;99.90
45319;DHT22;31057;48.498;32.260;2022-09-09T06:39:17;15.80;99.90
45319;DHT22;31057;48.498;32.260;2022-09-09T06:42:19;15.60;99.90
45319;DHT22;31057;48.498;32.260;2022-09-09T06:45:22;15.80;99.90
45319;DHT22;31057;48.498;32.260;2022-09-09T06:48:24;15.70;99.90
45319;DHT22;31057;48.498;32.260;2022-09-09T06:51:35;15.90;99.90
45319;DHT22;31057;48.498;32.260;2022-09-09T06:54:37;16.10;99.90
45319;DHT22;31057;48.498;32.260;2022-09-09T06:57:39;16.30;99.90
45319;DHT22;31057;48.498;32.260;2022-09-09T07:00:41;16.80;99.90
45319;DHT22;31057;48.498;32.260;2022-09-09T07:03:47;16.80;99.90
45319;DHT22;31057;48.498;32.260;2022-09-09T07:06:50;16.70;99.90
45319;DHT22;31057;48.498;32.260;2022-09-09T07:09:54;16.70;99.90
45319;DHT22;31057;48.498;32.260;2022-09-09T07:12:56;16.70;99.90
45319;DHT22;31057;48.498;32.260;2022-09-09T07:16:08;16.60;99.90
45319;DHT22;31057;48.498;32.260;2022-09-09T07:19:12;16.80;99.90
45319;DHT22;31057;48.498;32.260;2022-09-09T07:22:14;17.10;99.90
45319;DHT22;31057;48.498;32.260;2022-09-09T07:25:16;17.30;99.90
45319;DHT22;31057;48.498;32.260;2022-09-09T07:28:20;17.30;99.90
45319;DHT22;31057;48.498;32.260;2022-09-09T07:31:25;17.40;99.90
45319;DHT22;31057;48.498;32.260;2022-09-09T07:34:27;17.80;99.90
45319;DHT22;31057;48.498;32.260;2022-09-09T07:37:29;18.10;99.90
45319;DHT22;31057;48.498;32.260;2022-09-09T07:40:31;17.70;99.90
45319;DHT22;31057;48.498;32.260;2022-09-09T07:43:33;18.00;99.90
45319;DHT22;31057;48.498;32.260;2022-09-09T07:46:36;17.70;99.90
45319;DHT22;31057;48.498;32.260;2022-09-09T07:49:38;17.90;99.90
45319;DHT22;31057;48.498;32.260;2022-09-09T07:52:40;18.40;99.90
45319;DHT22;31057;48.498;32.260;2022-09-09T07:55:42;18.30;99.90
45319;DHT22;31057;48.498;32.260;2022-09-09T07:58:46;18.40;99.90
45319;DHT22;31057;48.498;32.260;2022-09-09T08:01:50;18.20;99.90
45319;DHT22;31057;48.498;32.260;2022-09-09T08:04:56;18.30;99.90
45319;DHT22;31057;48.498;32.260;2022-09-09T08:07:59;18.30;99.90
45319;DHT22;31057;48.498;32.260;2022-09-09T08:11:25;18.50;99.90
45319;DHT22;31057;48.498;32.260;2022-09-09T08:14:28;18.70;99.90
45319;DHT22;31057;48.498;32.260;2022-09-09T08:17:31;18.70;99.90
45319;DHT22;31057;48.498;32.260;2022-09-09T08:20:33;18.90;99.90
45319;DHT22;31057;48.498;32.260;2022-09-09T08:23:37;19.00;99.90
45319;DHT22;31057;48.498;32.260;2022-09-09T08:26:42;18.80;99.90
45319;DHT22;31057;48.498;32.260;2022-09-09T08:29:44;18.70;99.90
45319;DHT22;31057;48.498;32.260;2022-09-09T08:32:46;18.90;99.90
45319;DHT22;31057;48.498;32.260;2022-09-09T08:35:52;19.40;99.90
45319;DHT22;31057;48.498;32.260;2022-09-09T08:38:57;19.70;99.90
45319;DHT22;31057;48.498;32.260;2022-09-09T08:45:05;19.60;97.40
45319;DHT22;31057;48.498;32.260;2022-09-09T08:48:36;20.10;97.40
45319;DHT22;31057;48.498;32.260;2022-09-09T08:51:40;20.50;97.10
45319;DHT22;31057;48.498;32.260;2022-09-09T08:54:43;20.60;95.30
45319;DHT22;31057;48.498;32.260;2022-09-09T08:57:55;20.10;96.10
45319;DHT22;31057;48.498;32.260;2022-09-09T09:04:51;19.70;95.00
45319;DHT22;31057;48.498;32.260;2022-09-09T09:08:20;19.60;95.90
45319;DHT22;31057;48.498;32.260;2022-09-09T09:11:26;19.60;95.80
45319;DHT22;31057;48.498;32.260;2022-09-09T09:14:31;19.80;95.20
45319;DHT22;31057;48.498;32.260;2022-09-09T09:17:37;20.20;94.00
45319;DHT22;31057;48.498;32.260;2022-09-09T09:20:49;20.40;92.50
45319;DHT22;31057;48.498;32.260;2022-09-09T09:24:07;20.30;93.30
45319;DHT22;31057;48.498;32.260;2022-09-09T09:30:48;20.10;93.10
45319;DHT22;31057;48.498;32.260;2022-09-09T09:33:54;20.10;92.50
45319;DHT22;31057;48.498;32.260;2022-09-09T09:36:57;20.40;92.00
45319;DHT22;31057;48.498;32.260;2022-09-09T09:40:17;20.50;93.70
45319;DHT22;31057;48.498;32.260;2022-09-09T09:43:24;20.30;91.40
45319;DHT22;31057;48.498;32.260;2022-09-09T09:46:28;20.40;91.50
45319;DHT22;31057;48.498;32.260;2022-09-09T09:49:54;20.60;90.20
45319;DHT22;31057;48.498;32.260;2022-09-09T09:53:02;20.10;90.70
45319;DHT22;31057;48.498;32.260;2022-09-09T09:56:08;20.40;90.90
45319;DHT22;31057;48.498;32.260;2022-09-09T09:59:34;20.40;90.10
45319;DHT22;31057;48.498;32.260;2022-09-09T10:02:42;20.40;91.30
45319;DHT22;31057;48.498;32.260;2022-09-09T10:05:46;20.40;90.50
45319;DHT22;31057;48.498;32.260;2022-09-09T10:08:48;20.10;90.80
45319;DHT22;31057;48.498;32.260;2022-09-09T10:15:38;20.00;91.80
45319;DHT22;31057;48.498;32.260;2022-09-09T10:22:28;19.50;90.90
45319;DHT22;31057;48.498;32.260;2022-09-09T10:25:43;19.40;92.00
45319;DHT22;31057;48.498;32.260;2022-09-09T10:29:01;19.30;92.70
45319;DHT22;31057;48.498;32.260;2022-09-09T10:32:40;19.30;92.40
45319;DHT22;31057;48.498;32.260;2022-09-09T10:35:52;19.30;91.40
45319;DHT22;31057;48.498;32.260;2022-09-09T10:42:20;19.10;93.20
45319;DHT22;31057;48.498;32.260;2022-09-09T10:45:49;19.20;92.90
45319;DHT22;31057;48.498;32.260;2022-09-09T10:52:31;19.20;93.00
45319;DHT22;31057;48.498;32.260;2022-09-09T10:55:43;19.30;93.40
45319;DHT22;31057;48.498;32.260;2022-09-09T10:59:08;19.30;93.10
45319;DHT22;31057;48.498;32.260;2022-09-09T11:08:39;19.10;91.70
45319;DHT22;31057;48.498;32.260;2022-09-09T11:11:47;19.30;91.30
45319;DHT22;31057;48.498;32.260;2022-09-09T11:14:59;19.20;91.00
45319;DHT22;31057;48.498;32.260;2022-09-09T11:18:04;19.30;90.70
45319;DHT22;31057;48.498;32.260;2022-09-09T11:21:17;19.40;90.90
45319;DHT22;31057;48.498;32.260;2022-09-09T11:24:38;19.20;90.00
45319;DHT22;31057;48.498;32.260;2022-09-09T11:35:19;19.30;91.40
45319;DHT22;31057;48.498;32.260;2022-09-09T11:39:06;19.10;90.60
45319;DHT22;31057;48.498;32.260;2022-09-09T11:41:46;19.10;90.60
45319;DHT22;31057;48.498;32.260;2022-09-09T11:44:48;19.20;90.60
45319;DHT22;31057;48.498;32.260;2022-09-09T11:47:55;19.30;90.40
45319;DHT22;31057;48.498;32.260;2022-09-09T11:51:09;19.60;90.20
45319;DHT22;31057;48.498;32.260;2022-09-09T11:54:34;19.80;89.60
45319;DHT22;31057;48.498;32.260;2022-09-09T11:57:46;19.60;88.60
45319;DHT22;31057;48.498;32.260;2022-09-09T12:00:50;19.80;88.30
45319;DHT22;31057;48.498;32.260;2022-09-09T12:04:01;19.90;87.90
45319;DHT22;31057;48.498;32.260;2022-09-09T12:10:33;19.90;87.50
45319;DHT22;31057;48.498;32.260;2022-09-09T12:13:37;19.90;87.70
45319;DHT22;31057;48.498;32.260;2022-09-09T12:16:39;19.70;88.70
45319;DHT22;31057;48.498;32.260;2022-09-09T12:19:41;19.60;90.40
45319;DHT22;31057;48.498;32.260;2022-09-09T12:33:17;19.30;90.20
45319;DHT22;31057;48.498;32.260;2022-09-09T12:36:29;19.20;89.00
45319;DHT22;31057;48.498;32.260;2022-09-09T12:39:45;19.20;88.60
45319;DHT22;31057;48.498;32.260;2022-09-09T12:42:49;19.20;88.60
45319;DHT22;31057;48.498;32.260;2022-09-09T12:45:56;19.20;88.50
45319;DHT22;31057;48.498;32.260;2022-09-09T12:48:59;19.20;89.10
45319;DHT22;31057;48.498;32.260;2022-09-09T12:52:04;19.10;87.50
45319;DHT22;31057;48.498;32.260;2022-09-09T12:55:07;19.10;86.50
45319;DHT22;31057;48.498;32.260;2022-09-09T12:58:13;19.10;87.20
45319;DHT22;31057;48.498;32.260;2022-09-09T13:01:27;19.00;87.30
45319;DHT22;31057;48.498;32.260;2022-09-09T13:04:30;19.00;86.60
45319;DHT22;31057;48.498;32.260;2022-09-09T13:07:31;19.00;86.40
45319;DHT22;31057;48.498;32.260;2022-09-09T13:10:56;19.00;86.70
45319;DHT22;31057;48.498;32.260;2022-09-09T13:14:04;18.90;87.80
45319;DHT22;31057;48.498;32.260;2022-09-09T13:17:15;18.80;87.70
45319;DHT22;31057;48.498;32.260;2022-09-09T13:20:20;18.80;87.50
45319;DHT22;31057;48.498;32.260;2022-09-09T13:23:22;18.90;87.10
45319;DHT22;31057;48.498;32.260;2022-09-09T13:26:26;18.80;88.10
45319;DHT22;31057;48.498;32.260;2022-09-09T13:29:29;18.80;87.40
45319;DHT22;31057;48.498;32.260;2022-09-09T13:32:31;18.70;87.60
45319;DHT22;31057;48.498;32.260;2022-09-09T13:35:34;18.70;88.30
45319;DHT22;31057;48.498;32.260;2022-09-09T13:38:40;18.80;87.00
45319;DHT22;31057;48.498;32.260;2022-09-09T13:41:54;18.60;88.70
45319;DHT22;31057;48.498;32.260;2022-09-09T13:44:57;18.50;90.10
45319;DHT22;31057;48.498;32.260;2022-09-09T13:48:08;18.40;89.80
45319;DHT22;31057;48.498;32.260;2022-09-09T13:51:47;18.40;89.60
45319;DHT22;31057;48.498;32.260;2022-09-09T13:54:51;18.40;90.30
45319;DHT22;31057;48.498;32.260;2022-09-09T13:57:58;18.30;91.30
45319;DHT22;31057;48.498;32.260;2022-09-09T14:01:02;18.10;91.80
45319;DHT22;31057;48.498;32.260;2022-09-09T14:04:04;18.10;91.90
45319;DHT22;31057;48.498;32.260;2022-09-09T14:07:14;18.00;91.40
45319;DHT22;31057;48.498;32.260;2022-09-09T14:10:17;18.00;92.50
45319;DHT22;31057;48.498;32.260;2022-09-09T14:13:19;18.00;91.90
45319;DHT22;31057;48.498;32.260;2022-09-09T14:16:22;18.00;92.30
45319;DHT22;31057;48.498;32.260;2022-09-09T14:19:24;18.00;92.00
45319;DHT22;31057;48.498;32.260;2022-09-09T14:22:26;18.10;91.80
45319;DHT22;31057;48.498;32.260;2022-09-09T14:25:30;18.10;91.80
45319;DHT22;31057;48.498;32.260;2022-09-09T14:28:33;18.00;92.00
45319;DHT22;31057;48.498;32.260;2022-09-09T14:31:55;18.00;90.70
45319;DHT22;31057;48.498;32.260;2022-09-09T14:34:57;18.00;91.00
45319;DHT22;31057;48.498;32.260;2022-09-09T14:37:59;18.20;90.10
45319;DHT22;31057;48.498;32.260;2022-09-09T14:41:02;18.20;90.40
45319;DHT22;31057;48.498;32.260;2022-09-09T14:44:05;18.20;90.40
45319;DHT22;31057;48.498;32.260;2022-09-09T14:47:07;18.10;90.20
45319;DHT22;31057;48.498;32.260;2022-09-09T14:50:10;18.00;90.70
45319;DHT22;31057;48.498;32.260;2022-09-09T14:53:16;17.90;91.40
45319;DHT22;31057;48.498;32.260;2022-09-09T14:56:20;17.90;91.20
45319;DHT22;31057;48.498;32.260;2022-09-09T14:59:23;17.90;91.10
45319;DHT22;31057;48.498;32.260;2022-09-09T15:02:25;17.90;91.20
45319;DHT22;31057;48.498;32.260;2022-09-09T15:05:27;17.90;91.20
45319;DHT22;31057;48.498;32.260;2022-09-09T15:08:29;17.90;91.50
45319;DHT22;31057;48.498;32.260;2022-09-09T15:11:35;17.80;91.60
45319;DHT22;31057;48.498;32.260;2022-09-09T15:14:40;17.80;91.50
45319;DHT22;31057;48.498;32.260;2022-09-09T15:17:42;17.80;92.50
45319;DHT22;31057;48.498;32.260;2022-09-09T15:20:47;17.80;91.00
45319;DHT22;31057;48.498;32.260;2022-09-09T15:23:49;17.80;90.80
45319;DHT22;31057;48.498;32.260;2022-09-09T15:26:51;17.90;90.60
45319;DHT22;31057;48.498;32.260;2022-09-09T15:29:53;17.90;90.00
45319;DHT22;31057;48.498;32.260;2022-09-09T15:32:55;17.90;90.60
45319;DHT22;31057;48.498;32.260;2022-09-09T15:35:57;17.80;89.00
45319;DHT22;31057;48.498;32.260;2022-09-09T15:39:00;17.80;89.40
45319;DHT22;31057;48.498;32.260;2022-09-09T15:42:02;17.70;89.40
45319;DHT22;31057;48.498;32.260;2022-09-09T15:45:05;17.70;90.00
45319;DHT22;31057;48.498;32.260;2022-09-09T15:48:07;17.60;90.40
45319;DHT22;31057;48.498;32.260;2022-09-09T15:51:09;17.50;90.90
45319;DHT22;31057;48.498;32.260;2022-09-09T15:54:34;17.50;91.20
45319;DHT22;31057;48.498;32.260;2022-09-09T15:57:36;17.40;91.50
45319;DHT22;31057;48.498;32.260;2022-09-09T16:00:38;17.40;91.80
45319;DHT22;31057;48.498;32.260;2022-09-09T16:03:41;17.40;91.80
45319;DHT22;31057;48.498;32.260;2022-09-09T16:06:46;17.30;92.20
45319;DHT22;31057;48.498;32.260;2022-09-09T16:09:48;17.30;92.20
45319;DHT22;31057;48.498;32.260;2022-09-09T16:12:52;17.30;91.90
45319;DHT22;31057;48.498;32.260;2022-09-09T16:15:55;17.20;91.70
45319;DHT22;31057;48.498;32.260;2022-09-09T16:18:58;17.20;92.50
45319;DHT22;31057;48.498;32.260;2022-09-09T16:22:01;17.30;92.40
45319;DHT22;31057;48.498;32.260;2022-09-09T16:25:05;17.20;92.30
45319;DHT22;31057;48.498;32.260;2022-09-09T16:28:07;17.30;92.20
45319;DHT22;31057;48.498;32.260;2022-09-09T16:31:18;17.20;92.50
45319;DHT22;31057;48.498;32.260;2022-09-09T16:34:21;17.10;92.40
45319;DHT22;31057;48.498;32.260;2022-09-09T16:37:23;17.10;92.70
45319;DHT22;31057;48.498;32.260;2022-09-09T16:40:25;17.00;92.70
45319;DHT22;31057;48.498;32.260;2022-09-09T16:43:27;17.00;92.40
45319;DHT22;31057;48.498;32.260;2022-09-09T16:46:31;17.00;92.40
45319;DHT22;31057;48.498;32.260;2022-09-09T16:49:33;17.00;92.80
45319;DHT22;31057;48.498;32.260;2022-09-09T16:52:35;17.00;92.30
45319;DHT22;31057;48.498;32.260;2022-09-09T16:55:39;16.90;92.20
45319;DHT22;31057;48.498;32.260;2022-09-09T16:58:42;16.90;93.10
45319;DHT22;31057;48.498;32.260;2022-09-09T17:01:48;16.90;92.50
45319;DHT22;31057;48.498;32.260;2022-09-09T17:04:51;16.90;92.00
45319;DHT22;31057;48.498;32.260;2022-09-09T17:07:53;16.90;92.40
45319;DHT22;31057;48.498;32.260;2022-09-09T17:10:58;16.90;92.00
45319;DHT22;31057;48.498;32.260;2022-09-09T17:14:00;16.90;91.50
45319;DHT22;31057;48.498;32.260;2022-09-09T17:17:02;17.00;91.70
45319;DHT22;31057;48.498;32.260;2022-09-09T17:20:25;16.90;91.80
45319;DHT22;31057;48.498;32.260;2022-09-09T17:23:27;16.90;91.40
45319;DHT22;31057;48.498;32.260;2022-09-09T17:26:31;16.90;91.10
45319;DHT22;31057;48.498;32.260;2022-09-09T17:29:34;16.90;91.30
45319;DHT22;31057;48.498;32.260;2022-09-09T17:32:37;16.90;91.80
45319;DHT22;31057;48.498;32.260;2022-09-09T17:35:43;16.80;91.90
45319;DHT22;31057;48.498;32.260;2022-09-09T17:38:45;16.80;91.20
45319;DHT22;31057;48.498;32.260;2022-09-09T17:41:48;16.90;91.30
45319;DHT22;31057;48.498;32.260;2022-09-09T17:44:50;16.80;92.40
45319;DHT22;31057;48.498;32.260;2022-09-09T17:47:54;16.60;92.70
45319;DHT22;31057;48.498;32.260;2022-09-09T17:50:59;16.60;92.70
45319;DHT22;31057;48.498;32.260;2022-09-09T17:54:05;16.60;93.80
45319;DHT22;31057;48.498;32.260;2022-09-09T17:57:09;16.40;94.50
45319;DHT22;31057;48.498;32.260;2022-09-09T18:00:11;16.20;95.70
45319;DHT22;31057;48.498;32.260;2022-09-09T18:03:13;15.80;98.50
45319;DHT22;31057;48.498;32.260;2022-09-09T18:06:18;15.80;97.40
45319;DHT22;31057;48.498;32.260;2022-09-09T18:09:23;15.60;97.60
45319;DHT22;31057;48.498;32.260;2022-09-09T18:12:26;15.50;99.90
45319;DHT22;31057;48.498;32.260;2022-09-09T18:15:28;15.60;97.80
45319;DHT22;31057;48.498;32.260;2022-09-09T18:18:50;15.50;99.20
45319;DHT22;31057;48.498;32.260;2022-09-09T18:21:53;15.40;99.40
45319;DHT22;31057;48.498;32.260;2022-09-09T18:25:00;15.30;99.90
45319;DHT22;31057;48.498;32.260;2022-09-09T18:28:03;15.20;99.90
45319;DHT22;31057;48.498;32.260;2022-09-09T18:31:06;14.80;99.90
45319;DHT22;31057;48.498;32.260;2022-09-09T18:34:11;14.90;99.90
45319;DHT22;31057;48.498;32.260;2022-09-09T18:37:13;14.70;99.90
45319;DHT22;31057;48.498;32.260;2022-09-09T18:40:16;14.60;99.90
45319;DHT22;31057;48.498;32.260;2022-09-09T18:43:18;14.40;99.90
45319;DHT22;31057;48.498;32.260;2022-09-09T18:46:21;14.20;99.90
45319;DHT22;31057;48.498;32.260;2022-09-09T18:49:23;14.10;99.90
45319;DHT22;31057;48.498;32.260;2022-09-09T18:52:25;13.80;99.90
45319;DHT22;31057;48.498;32.260;2022-09-09T18:55:27;13.80;99.90
45319;DHT22;31057;48.498;32.260;2022-09-09T18:58:30;14.00;99.90
45319;DHT22;31057;48.498;32.260;2022-09-09T19:01:33;14.00;99.90
45319;DHT22;31057;48.498;32.260;2022-09-09T19:04:36;14.10;99.90
45319;DHT22;31057;48.498;32.260;2022-09-09T19:07:38;14.00;99.90
45319;DHT22;31057;48.498;32.260;2022-09-09T19:10:42;13.90;99.90
45319;DHT22;31057;48.498;32.260;2022-09-09T19:13:52;13.70;99.90
45319;DHT22;31057;48.498;32.260;2022-09-09T19:16:54;13.70;99.90
45319;DHT22;31057;48.498;32.260;2022-09-09T19:19:57;13.70;99.90
45319;DHT22;31057;48.498;32.260;2022-09-09T19:22:59;13.60;99.90
45319;DHT22;31057;48.498;32.260;2022-09-09T19:26:02;13.30;99.90
45319;DHT22;31057;48.498;32.260;2022-09-09T19:29:04;13.20;99.90
45319;DHT22;31057;48.498;32.260;2022-09-09T19:32:06;13.10;99.90
45319;DHT22;31057;48.498;32.260;2022-09-09T19:35:28;13.20;99.90
45319;DHT22;31057;48.498;32.260;2022-09-09T19:38:31;13.30;99.90
45319;DHT22;31057;48.498;32.260;2022-09-09T19:41:33;13.30;99.90
45319;DHT22;31057;48.498;32.260;2022-09-09T19:44:35;13.30;99.90
45319;DHT22;31057;48.498;32.260;2022-09-09T19:47:37;13.20;99.90
45319;DHT22;31057;48.498;32.260;2022-09-09T19:50:39;13.40;99.90
45319;DHT22;31057;48.498;32.260;2022-09-09T19:53:44;13.30;99.90
45319;DHT22;31057;48.498;32.260;2022-09-09T19:56:46;13.20;99.90
45319;DHT22;31057;48.498;32.260;2022-09-09T19:59:48;13.20;99.90
45319;DHT22;31057;48.498;32.260;2022-09-09T20:02:50;13.20;99.90
45319;DHT22;31057;48.498;32.260;2022-09-09T20:06:14;13.00;99.90
45319;DHT22;31057;48.498;32.260;2022-09-09T20:09:17;13.10;99.90
45319;DHT22;31057;48.498;32.260;2022-09-09T20:12:20;13.00;99.90
45319;DHT22;31057;48.498;32.260;2022-09-09T20:15:22;12.80;99.90
45319;DHT22;31057;48.498;32.260;2022-09-09T20:18:26;12.90;99.90
45319;DHT22;31057;48.498;32.260;2022-09-09T20:21:29;12.90;99.90
45319;DHT22;31057;48.498;32.260;2022-09-09T20:24:32;13.00;99.90
45319;DHT22;31057;48.498;32.260;2022-09-09T20:27:34;12.80;99.90
45319;DHT22;31057;48.498;32.260;2022-09-09T20:30:36;13.00;99.90
45319;DHT22;31057;48.498;32.260;2022-09-09T20:33:39;12.90;99.90
45319;DHT22;31057;48.498;32.260;2022-09-09T20:36:42;12.90;99.90
45319;DHT22;31057;48.498;32.260;2022-09-09T20:39:44;12.70;99.90
45319;DHT22;31057;48.498;32.260;2022-09-09T20:42:47;12.90;99.90
45319;DHT22;31057;48.498;32.260;2022-09-09T20:45:49;12.80;99.90
45319;DHT22;31057;48.498;32.260;2022-09-09T20:48:51;12.80;99.90